sensor_id;sensor_type;location;lat;lon;timestamp;pressure;altitude;pressure_sealevel;temperature;humidity
55994;BME280;67425;52.126;20.638;2023-07-29T00:01:40;57474.81;;;-144.78;65.02
55994;BME280;67425;52.126;20.638;2023-07-29T00:04:06;57489.34;;;-144.78;66.17
55994;BME280;67425;52.126;20.638;2023-07-29T00:06:31;57522.56;;;-144.78;66.08
55994;BME280;67425;52.126;20.638;2023-07-29T00:08:57;57522.56;;;-144.78;67.34
55994;BME280;67425;52.126;20.638;2023-07-29T00:11:22;57505.97;;;-144.78;66.89
55994;BME280;67425;52.126;20.638;2023-07-29T00:13:47;57518.41;;;-144.78;66.79
55994;BME280;67425;52.126;20.638;2023-07-29T00:16:15;57510.13;;;-144.78;66.60
55994;BME280;67425;52.126;20.638;2023-07-29T00:18:42;57499.72;;;-144.78;65.83
55994;BME280;67425;52.126;20.638;2023-07-29T00:21:07;57505.97;;;-144.78;65.89
55994;BME280;67425;52.126;20.638;2023-07-29T00:23:33;57499.72;;;-144.78;66.08
55994;BME280;67425;52.126;20.638;2023-07-29T00:25:58;57489.34;;;-144.78;66.27
55994;BME280;67425;52.126;20.638;2023-07-29T00:28:23;57493.50;;;-144.78;67.23
55994;BME280;67425;52.126;20.638;2023-07-29T00:30:49;57497.66;;;-144.78;66.26
55994;BME280;67425;52.126;20.638;2023-07-29T00:33:14;57503.88;;;-144.78;67.74
55994;BME280;67425;52.126;20.638;2023-07-29T00:35:39;57499.72;;;-144.78;67.21
55994;BME280;67425;52.126;20.638;2023-07-29T00:38:05;57481.03;;;-144.78;67.16
55994;BME280;67425;52.126;20.638;2023-07-29T00:40:30;57530.88;;;-144.78;67.15
55994;BME280;67425;52.126;20.638;2023-07-29T00:42:58;57505.97;;;-144.78;67.82
55994;BME280;67425;52.126;20.638;2023-07-29T00:45:25;57530.88;;;-144.78;67.56
55994;BME280;67425;52.126;20.638;2023-07-29T00:47:51;57520.50;;;-144.78;67.46
55994;BME280;67425;52.126;20.638;2023-07-29T00:50:17;57501.81;;;-144.78;67.36
55994;BME280;67425;52.126;20.638;2023-07-29T00:52:42;57503.88;;;-144.78;67.73
55994;BME280;67425;52.126;20.638;2023-07-29T00:55:08;57530.88;;;-144.78;67.44
55994;BME280;67425;52.126;20.638;2023-07-29T00:57:33;57501.81;;;-144.78;67.49
55994;BME280;67425;52.126;20.638;2023-07-29T01:00:01;57532.97;;;-144.78;68.04
55994;BME280;67425;52.126;20.638;2023-07-29T01:02:27;57493.50;;;-144.78;68.35
55994;BME280;67425;52.126;20.638;2023-07-29T01:04:54;57535.03;;;-144.78;68.03
55994;BME280;67425;52.126;20.638;2023-07-29T01:07:33;57526.72;;;-144.78;69.14
55994;BME280;67425;52.126;20.638;2023-07-29T01:15:19;57520.50;;;-144.78;69.60
55994;BME280;67425;52.126;20.638;2023-07-29T01:18:04;57528.81;;;-144.78;70.28
55994;BME280;67425;52.126;20.638;2023-07-29T01:20:34;57524.66;;;-144.78;69.01
55994;BME280;67425;52.126;20.638;2023-07-29T01:23:01;57514.25;;;-144.78;69.35
55994;BME280;67425;52.126;20.638;2023-07-29T01:25:27;57510.13;;;-144.78;70.03
55994;BME280;67425;52.126;20.638;2023-07-29T01:27:52;57532.97;;;-144.78;69.47
55994;BME280;67425;52.126;20.638;2023-07-29T01:30:22;57526.72;;;-144.78;68.41
55994;BME280;67425;52.126;20.638;2023-07-29T01:33:10;57557.88;;;-144.78;68.76
55994;BME280;67425;52.126;20.638;2023-07-29T01:36:13;57522.56;;;-144.78;70.38
55994;BME280;67425;52.126;20.638;2023-07-29T01:38:41;57543.34;;;-144.78;69.12
55994;BME280;67425;52.126;20.638;2023-07-29T01:41:08;57532.97;;;-144.78;68.97
55994;BME280;67425;52.126;20.638;2023-07-29T01:43:34;57551.66;;;-144.78;69.99
55994;BME280;67425;52.126;20.638;2023-07-29T01:46:04;57541.25;;;-144.78;69.07
55994;BME280;67425;52.126;20.638;2023-07-29T01:48:29;57539.19;;;-144.78;69.32
55994;BME280;67425;52.126;20.638;2023-07-29T01:50:57;57553.72;;;-144.78;68.03
55994;BME280;67425;52.126;20.638;2023-07-29T01:53:22;57541.25;;;-144.78;69.32
55994;BME280;67425;52.126;20.638;2023-07-29T01:55:47;57549.56;;;-144.78;69.05
55994;BME280;67425;52.126;20.638;2023-07-29T01:58:13;57555.81;;;-144.78;71.15
55994;BME280;67425;52.126;20.638;2023-07-29T02:00:39;57557.88;;;-144.78;70.03
55994;BME280;67425;52.126;20.638;2023-07-29T02:03:05;57566.19;;;-144.78;70.37
55994;BME280;67425;52.126;20.638;2023-07-29T02:05:30;57570.34;;;-144.78;69.69
55994;BME280;67425;52.126;20.638;2023-07-29T02:07:55;57532.97;;;-144.78;69.16
55994;BME280;67425;52.126;20.638;2023-07-29T02:10:21;57574.50;;;-144.78;69.15
55994;BME280;67425;52.126;20.638;2023-07-29T02:12:46;57564.09;;;-144.78;70.57
55994;BME280;67425;52.126;20.638;2023-07-29T02:15:11;57570.34;;;-144.78;70.55
55994;BME280;67425;52.126;20.638;2023-07-29T02:17:37;57562.03;;;-144.78;70.23
55994;BME280;67425;52.126;20.638;2023-07-29T02:20:03;57551.66;;;-144.78;70.09
55994;BME280;67425;52.126;20.638;2023-07-29T02:22:29;57535.03;;;-144.78;70.25
55994;BME280;67425;52.126;20.638;2023-07-29T02:24:54;57543.34;;;-144.78;70.62
55994;BME280;67425;52.126;20.638;2023-07-29T02:27:19;57570.34;;;-144.78;71.74
55994;BME280;67425;52.126;20.638;2023-07-29T02:29:44;57562.03;;;-144.78;75.85
55994;BME280;67425;52.126;20.638;2023-07-29T02:32:10;57543.34;;;-144.78;75.44
55994;BME280;67425;52.126;20.638;2023-07-29T02:34:35;57543.34;;;-144.78;74.69
55994;BME280;67425;52.126;20.638;2023-07-29T02:37:00;57557.88;;;-144.78;74.85
55994;BME280;67425;52.126;20.638;2023-07-29T02:39:26;57553.72;;;-144.78;74.76
55994;BME280;67425;52.126;20.638;2023-07-29T02:41:51;57537.09;;;-144.78;74.60
55994;BME280;67425;52.126;20.638;2023-07-29T02:44:16;57566.19;;;-144.78;74.66
55994;BME280;67425;52.126;20.638;2023-07-29T02:46:42;57572.41;;;-144.78;75.35
55994;BME280;67425;52.126;20.638;2023-07-29T02:49:07;57535.03;;;-144.78;75.15
55994;BME280;67425;52.126;20.638;2023-07-29T02:51:33;57547.50;;;-144.78;75.64
55994;BME280;67425;52.126;20.638;2023-07-29T02:53:58;57528.81;;;-144.78;75.52
55994;BME280;67425;52.126;20.638;2023-07-29T02:56:24;57545.41;;;-144.78;74.88
55994;BME280;67425;52.126;20.638;2023-07-29T02:58:49;57547.50;;;-144.78;74.90
55994;BME280;67425;52.126;20.638;2023-07-29T03:01:16;57545.41;;;-144.78;74.91
55994;BME280;67425;52.126;20.638;2023-07-29T03:03:42;57568.25;;;-144.78;74.86
55994;BME280;67425;52.126;20.638;2023-07-29T03:06:08;57543.34;;;-144.78;74.85
55994;BME280;67425;52.126;20.638;2023-07-29T03:08:34;57557.88;;;-144.78;74.67
55994;BME280;67425;52.126;20.638;2023-07-29T03:11:06;57526.72;;;-144.78;74.68
55994;BME280;67425;52.126;20.638;2023-07-29T03:13:32;57547.50;;;-144.78;75.28
55994;BME280;67425;52.126;20.638;2023-07-29T03:16:11;57547.50;;;-144.78;74.28
55994;BME280;67425;52.126;20.638;2023-07-29T03:18:37;57557.88;;;-144.78;73.57
55994;BME280;67425;52.126;20.638;2023-07-29T03:21:03;57535.03;;;-144.78;73.34
55994;BME280;67425;52.126;20.638;2023-07-29T03:23:30;57543.34;;;-144.78;73.43
55994;BME280;67425;52.126;20.638;2023-07-29T03:25:56;57526.72;;;-144.78;73.51
55994;BME280;67425;52.126;20.638;2023-07-29T03:28:28;57568.25;;;-144.78;73.71
55994;BME280;67425;52.126;20.638;2023-07-29T03:30:57;57545.41;;;-144.78;72.53
55994;BME280;67425;52.126;20.638;2023-07-29T03:33:24;57532.97;;;-144.78;72.28
55994;BME280;67425;52.126;20.638;2023-07-29T03:35:50;57541.25;;;-144.78;71.54
55994;BME280;67425;52.126;20.638;2023-07-29T03:38:15;57535.03;;;-144.78;71.57
55994;BME280;67425;52.126;20.638;2023-07-29T03:40:41;57528.81;;;-144.78;71.44
55994;BME280;67425;52.126;20.638;2023-07-29T03:43:07;57537.09;;;-144.78;72.21
55994;BME280;67425;52.126;20.638;2023-07-29T03:45:33;57518.41;;;-144.78;71.72
55994;BME280;67425;52.126;20.638;2023-07-29T03:47:59;57545.41;;;-144.78;71.70
55994;BME280;67425;52.126;20.638;2023-07-29T03:50:25;57539.19;;;-144.78;71.60
55994;BME280;67425;52.126;20.638;2023-07-29T03:52:50;57537.09;;;-144.78;71.85
55994;BME280;67425;52.126;20.638;2023-07-29T03:55:16;57528.81;;;-144.78;71.72
55994;BME280;67425;52.126;20.638;2023-07-29T03:57:41;57541.25;;;-144.78;72.50
55994;BME280;67425;52.126;20.638;2023-07-29T04:00:07;57555.81;;;-144.78;73.56
55994;BME280;67425;52.126;20.638;2023-07-29T04:02:32;57549.56;;;-144.78;73.17
55994;BME280;67425;52.126;20.638;2023-07-29T04:04:57;57537.09;;;-144.78;72.30
55994;BME280;67425;52.126;20.638;2023-07-29T04:07:23;57551.66;;;-144.78;73.94
55994;BME280;67425;52.126;20.638;2023-07-29T04:09:48;57530.88;;;-144.78;73.84
55994;BME280;67425;52.126;20.638;2023-07-29T04:12:14;57530.88;;;-144.78;73.14
55994;BME280;67425;52.126;20.638;2023-07-29T04:14:40;57528.81;;;-144.78;73.64
55994;BME280;67425;52.126;20.638;2023-07-29T04:17:05;57528.81;;;-144.78;73.98
55994;BME280;67425;52.126;20.638;2023-07-29T04:19:30;57539.19;;;-144.78;73.71
55994;BME280;67425;52.126;20.638;2023-07-29T04:21:56;57524.66;;;-144.78;74.71
55994;BME280;67425;52.126;20.638;2023-07-29T04:24:21;57528.81;;;-144.78;75.09
55994;BME280;67425;52.126;20.638;2023-07-29T04:26:48;57516.34;;;-144.78;76.45
55994;BME280;67425;52.126;20.638;2023-07-29T04:29:14;57505.97;;;-144.78;75.09
55994;BME280;67425;52.126;20.638;2023-07-29T04:31:39;57522.56;;;-144.78;74.79
55994;BME280;67425;52.126;20.638;2023-07-29T04:34:04;57537.09;;;-144.78;73.84
55994;BME280;67425;52.126;20.638;2023-07-29T04:36:30;57508.03;;;-144.78;73.99
55994;BME280;67425;52.126;20.638;2023-07-29T04:38:55;57516.34;;;-144.78;73.43
55994;BME280;67425;52.126;20.638;2023-07-29T04:41:20;57516.34;;;-144.78;73.48
55994;BME280;67425;52.126;20.638;2023-07-29T04:43:46;57503.88;;;-144.78;73.65
55994;BME280;67425;52.126;20.638;2023-07-29T04:46:11;57518.41;;;-144.78;73.64
55994;BME280;67425;52.126;20.638;2023-07-29T04:48:37;57505.97;;;-144.78;74.02
55994;BME280;67425;52.126;20.638;2023-07-29T04:51:02;57532.97;;;-144.78;73.82
55994;BME280;67425;52.126;20.638;2023-07-29T04:53:27;57522.56;;;-144.78;74.10
55994;BME280;67425;52.126;20.638;2023-07-29T04:55:53;57524.66;;;-144.78;73.92
55994;BME280;67425;52.126;20.638;2023-07-29T04:58:18;57497.66;;;-144.78;73.35
55994;BME280;67425;52.126;20.638;2023-07-29T05:00:43;57522.56;;;-144.78;73.84
55994;BME280;67425;52.126;20.638;2023-07-29T05:03:09;57503.88;;;-144.78;73.82
55994;BME280;67425;52.126;20.638;2023-07-29T05:05:34;57510.13;;;-144.78;71.43
55994;BME280;67425;52.126;20.638;2023-07-29T05:08:00;57514.25;;;-144.78;71.59
55994;BME280;67425;52.126;20.638;2023-07-29T05:10:25;57501.81;;;-144.78;70.56
55994;BME280;67425;52.126;20.638;2023-07-29T05:12:50;57505.97;;;-144.78;70.37
55994;BME280;67425;52.126;20.638;2023-07-29T05:15:16;57516.34;;;-144.78;71.29
55994;BME280;67425;52.126;20.638;2023-07-29T05:17:41;57499.72;;;-144.78;69.84
55994;BME280;67425;52.126;20.638;2023-07-29T05:20:07;57530.88;;;-144.78;72.53
55994;BME280;67425;52.126;20.638;2023-07-29T05:22:33;57491.41;;;-144.78;71.13
55994;BME280;67425;52.126;20.638;2023-07-29T05:24:58;57510.13;;;-144.78;69.73
55994;BME280;67425;52.126;20.638;2023-07-29T05:27:23;57474.81;;;-144.78;68.79
55994;BME280;67425;52.126;20.638;2023-07-29T05:29:48;57518.41;;;-144.78;68.90
55994;BME280;67425;52.126;20.638;2023-07-29T05:32:14;57495.56;;;-144.78;69.49
55994;BME280;67425;52.126;20.638;2023-07-29T05:34:39;57516.34;;;-144.78;69.16
55994;BME280;67425;52.126;20.638;2023-07-29T05:37:04;57512.19;;;-144.78;69.25
55994;BME280;67425;52.126;20.638;2023-07-29T05:39:30;57489.34;;;-144.78;68.71
55994;BME280;67425;52.126;20.638;2023-07-29T05:41:57;57493.50;;;-144.78;69.01
55994;BME280;67425;52.126;20.638;2023-07-29T05:44:22;57505.97;;;-144.78;68.40
55994;BME280;67425;52.126;20.638;2023-07-29T05:46:48;57491.41;;;-144.78;67.57
55994;BME280;67425;52.126;20.638;2023-07-29T05:49:13;57499.72;;;-144.78;67.94
55994;BME280;67425;52.126;20.638;2023-07-29T05:51:38;57468.56;;;-144.78;67.37
55994;BME280;67425;52.126;20.638;2023-07-29T05:54:04;57501.81;;;-144.78;67.12
55994;BME280;67425;52.126;20.638;2023-07-29T05:56:29;57481.03;;;-144.78;66.31
55994;BME280;67425;52.126;20.638;2023-07-29T05:58:56;57447.81;;;-144.78;65.51
55994;BME280;67425;52.126;20.638;2023-07-29T06:01:22;57510.13;;;-144.78;65.12
55994;BME280;67425;52.126;20.638;2023-07-29T06:03:47;57501.81;;;-144.78;65.33
55994;BME280;67425;52.126;20.638;2023-07-29T06:06:13;57532.97;;;-144.78;65.00
55994;BME280;67425;52.126;20.638;2023-07-29T06:08:38;57487.28;;;-144.78;65.52
55994;BME280;67425;52.126;20.638;2023-07-29T06:11:03;57481.03;;;-144.78;65.19
55994;BME280;67425;52.126;20.638;2023-07-29T06:13:31;57501.81;;;-144.78;64.51
55994;BME280;67425;52.126;20.638;2023-07-29T06:15:57;57487.28;;;-144.78;63.79
55994;BME280;67425;52.126;20.638;2023-07-29T06:18:22;57476.88;;;-144.78;65.24
55994;BME280;67425;52.126;20.638;2023-07-29T06:20:47;57478.97;;;-144.78;66.89
55994;BME280;67425;52.126;20.638;2023-07-29T06:23:13;57476.88;;;-144.78;64.66
55994;BME280;67425;52.126;20.638;2023-07-29T06:25:38;57462.34;;;-144.78;65.33
55994;BME280;67425;52.126;20.638;2023-07-29T06:28:03;57454.03;;;-144.78;64.53
55994;BME280;67425;52.126;20.638;2023-07-29T06:30:30;57483.13;;;-144.78;64.97
55994;BME280;67425;52.126;20.638;2023-07-29T06:32:55;57499.72;;;-144.78;66.90
55994;BME280;67425;52.126;20.638;2023-07-29T06:35:21;57493.50;;;-144.78;67.48
55994;BME280;67425;52.126;20.638;2023-07-29T06:37:46;57458.19;;;-144.78;67.42
55994;BME280;67425;52.126;20.638;2023-07-29T06:40:11;57449.88;;;-144.78;63.29
55994;BME280;67425;52.126;20.638;2023-07-29T06:42:37;57454.03;;;-144.78;61.41
55994;BME280;67425;52.126;20.638;2023-07-29T06:45:04;57451.97;;;-144.78;58.82
55994;BME280;67425;52.126;20.638;2023-07-29T06:47:29;57433.28;;;-144.78;59.96
55994;BME280;67425;52.126;20.638;2023-07-29T06:49:55;57456.13;;;-144.78;59.92
55994;BME280;67425;52.126;20.638;2023-07-29T06:52:20;57493.50;;;-144.78;59.91
55994;BME280;67425;52.126;20.638;2023-07-29T06:54:45;57468.56;;;-144.78;60.84
55994;BME280;67425;52.126;20.638;2023-07-29T06:57:11;57464.41;;;-144.78;62.95
55994;BME280;67425;52.126;20.638;2023-07-29T06:59:36;57418.72;;;-144.78;57.91
55994;BME280;67425;52.126;20.638;2023-07-29T07:02:02;57449.88;;;-144.78;57.27
55994;BME280;67425;52.126;20.638;2023-07-29T07:04:27;57447.81;;;-144.78;56.63
55994;BME280;67425;52.126;20.638;2023-07-29T07:06:53;57460.28;;;-144.78;58.56
55994;BME280;67425;52.126;20.638;2023-07-29T07:09:19;57456.13;;;-144.78;60.38
55994;BME280;67425;52.126;20.638;2023-07-29T07:11:44;57472.72;;;-144.78;59.18
55994;BME280;67425;52.126;20.638;2023-07-29T07:14:10;57449.88;;;-144.78;57.88
55994;BME280;67425;52.126;20.638;2023-07-29T07:16:35;57462.34;;;-144.78;59.27
55994;BME280;67425;52.126;20.638;2023-07-29T07:19:02;57424.97;;;-144.78;55.46
55994;BME280;67425;52.126;20.638;2023-07-29T07:21:27;57466.50;;;-144.78;55.58
55994;BME280;67425;52.126;20.638;2023-07-29T07:23:53;57435.34;;;-144.78;54.60
55994;BME280;67425;52.126;20.638;2023-07-29T07:26:18;57439.50;;;-144.78;53.30
55994;BME280;67425;52.126;20.638;2023-07-29T07:28:43;57427.03;;;-144.78;53.44
55994;BME280;67425;52.126;20.638;2023-07-29T07:31:09;57443.66;;;-144.78;52.56
55994;BME280;67425;52.126;20.638;2023-07-29T07:33:34;57464.41;;;-144.78;54.25
55994;BME280;67425;52.126;20.638;2023-07-29T07:35:59;57441.59;;;-144.78;52.13
55994;BME280;67425;52.126;20.638;2023-07-29T07:38:25;57437.44;;;-144.78;54.26
55994;BME280;67425;52.126;20.638;2023-07-29T07:40:54;57437.44;;;-144.78;49.91
55994;BME280;67425;52.126;20.638;2023-07-29T07:43:20;57468.56;;;-144.78;52.48
55994;BME280;67425;52.126;20.638;2023-07-29T07:45:45;57406.28;;;-144.78;54.85
55994;BME280;67425;52.126;20.638;2023-07-29T07:48:11;57437.44;;;-144.78;55.74
55994;BME280;67425;52.126;20.638;2023-07-29T07:50:38;57414.59;;;-144.78;51.30
55994;BME280;67425;52.126;20.638;2023-07-29T07:53:03;57437.44;;;-144.78;51.54
55994;BME280;67425;52.126;20.638;2023-07-29T07:55:29;57402.13;;;-144.78;51.53
55994;BME280;67425;52.126;20.638;2023-07-29T07:57:54;57435.34;;;-144.78;52.18
55994;BME280;67425;52.126;20.638;2023-07-29T08:00:20;57468.56;;;-144.78;54.23
55994;BME280;67425;52.126;20.638;2023-07-29T08:02:45;57462.34;;;-144.78;53.11
55994;BME280;67425;52.126;20.638;2023-07-29T08:05:11;57435.34;;;-144.78;52.66
55994;BME280;67425;52.126;20.638;2023-07-29T08:07:36;57437.44;;;-144.78;53.22
55994;BME280;67425;52.126;20.638;2023-07-29T08:10:02;57439.50;;;-144.78;49.74
55994;BME280;67425;52.126;20.638;2023-07-29T08:12:27;57410.44;;;-144.78;48.41
55994;BME280;67425;52.126;20.638;2023-07-29T08:14:52;57393.81;;;-144.78;45.96
55994;BME280;67425;52.126;20.638;2023-07-29T08:17:18;57422.88;;;-144.78;46.57
55994;BME280;67425;52.126;20.638;2023-07-29T08:19:43;57433.28;;;-144.78;47.45
55994;BME280;67425;52.126;20.638;2023-07-29T08:22:09;57366.81;;;-144.78;46.71
55994;BME280;67425;52.126;20.638;2023-07-29T08:24:34;57377.19;;;-144.78;44.84
55994;BME280;67425;52.126;20.638;2023-07-29T08:27:00;57391.75;;;-144.78;46.77
55994;BME280;67425;52.126;20.638;2023-07-29T08:29:25;57400.03;;;-144.78;46.04
55994;BME280;67425;52.126;20.638;2023-07-29T08:31:50;57435.34;;;-144.78;49.32
55994;BME280;67425;52.126;20.638;2023-07-29T08:34:16;57435.34;;;-144.78;47.89
55994;BME280;67425;52.126;20.638;2023-07-29T08:36:42;57462.34;;;-144.78;47.33
55994;BME280;67425;52.126;20.638;2023-07-29T08:39:07;57416.66;;;-144.78;47.49
55994;BME280;67425;52.126;20.638;2023-07-29T08:42:23;57435.34;;;-144.78;48.72
55994;BME280;67425;52.126;20.638;2023-07-29T08:44:26;57433.28;;;-144.78;47.35
55994;BME280;67425;52.126;20.638;2023-07-29T08:46:56;57404.19;;;-144.78;47.23
55994;BME280;67425;52.126;20.638;2023-07-29T08:49:23;57460.28;;;-144.78;48.97
55994;BME280;67425;52.126;20.638;2023-07-29T08:51:49;57377.19;;;-144.78;46.58
55994;BME280;67425;52.126;20.638;2023-07-29T08:54:15;57397.97;;;-144.78;46.13
55994;BME280;67425;52.126;20.638;2023-07-29T08:56:41;57408.34;;;-144.78;45.45
55994;BME280;67425;52.126;20.638;2023-07-29T08:59:08;57406.28;;;-144.78;44.56
55994;BME280;67425;52.126;20.638;2023-07-29T09:01:33;57397.97;;;-144.78;44.03
55994;BME280;67425;52.126;20.638;2023-07-29T09:03:59;57402.13;;;-144.78;43.79
55994;BME280;67425;52.126;20.638;2023-07-29T09:06:25;57431.19;;;-144.78;44.50
55994;BME280;67425;52.126;20.638;2023-07-29T09:08:53;57420.81;;;-144.78;45.55
55994;BME280;67425;52.126;20.638;2023-07-29T09:11:19;57377.19;;;-144.78;43.06
55994;BME280;67425;52.126;20.638;2023-07-29T09:13:46;57358.50;;;-144.78;43.21
55994;BME280;67425;52.126;20.638;2023-07-29T09:16:11;57366.81;;;-144.78;42.31
55994;BME280;67425;52.126;20.638;2023-07-29T09:18:37;57389.66;;;-144.78;43.54
55994;BME280;67425;52.126;20.638;2023-07-29T09:21:02;57429.13;;;-144.78;42.84
55994;BME280;67425;52.126;20.638;2023-07-29T09:23:28;57391.75;;;-144.78;43.74
55994;BME280;67425;52.126;20.638;2023-07-29T09:26:03;57431.19;;;-144.78;44.71
55994;BME280;67425;52.126;20.638;2023-07-29T09:28:33;57410.44;;;-144.78;43.02
55994;BME280;67425;52.126;20.638;2023-07-29T09:31:00;57385.50;;;-144.78;41.00
55994;BME280;67425;52.126;20.638;2023-07-29T09:33:26;57354.34;;;-144.78;41.84
55994;BME280;67425;52.126;20.638;2023-07-29T09:35:52;57381.34;;;-144.78;43.04
55994;BME280;67425;52.126;20.638;2023-07-29T09:38:17;57391.75;;;-144.78;41.08
55994;BME280;67425;52.126;20.638;2023-07-29T09:40:42;57406.28;;;-144.78;42.60
55994;BME280;67425;52.126;20.638;2023-07-29T09:43:10;57385.50;;;-144.78;40.90
55994;BME280;67425;52.126;20.638;2023-07-29T09:45:36;57366.81;;;-144.78;40.28
55994;BME280;67425;52.126;20.638;2023-07-29T09:48:03;57379.28;;;-144.78;39.94
55994;BME280;67425;52.126;20.638;2023-07-29T09:50:30;57395.88;;;-144.78;42.11
55994;BME280;67425;52.126;20.638;2023-07-29T09:52:56;57408.34;;;-144.78;43.27
55994;BME280;67425;52.126;20.638;2023-07-29T09:55:25;57352.28;;;-144.78;40.83
55994;BME280;67425;52.126;20.638;2023-07-29T09:57:59;57356.44;;;-144.78;41.28
55994;BME280;67425;52.126;20.638;2023-07-29T10:00:33;57335.66;;;-144.78;39.50
55994;BME280;67425;52.126;20.638;2023-07-29T10:02:59;57314.91;;;-144.78;40.07
55994;BME280;67425;52.126;20.638;2023-07-29T10:05:28;57339.81;;;-144.78;39.19
55994;BME280;67425;52.126;20.638;2023-07-29T10:07:55;57327.34;;;-144.78;39.49
55994;BME280;67425;52.126;20.638;2023-07-29T10:10:21;57393.81;;;-144.78;39.58
55994;BME280;67425;52.126;20.638;2023-07-29T10:12:47;57364.75;;;-144.78;39.37
55994;BME280;67425;52.126;20.638;2023-07-29T10:15:12;57354.34;;;-144.78;39.50
55994;BME280;67425;52.126;20.638;2023-07-29T10:17:39;57402.13;;;-144.78;41.40
55994;BME280;67425;52.126;20.638;2023-07-29T10:20:09;57373.06;;;-144.78;39.42
55994;BME280;67425;52.126;20.638;2023-07-29T10:22:43;57339.81;;;-144.78;38.72
55994;BME280;67425;52.126;20.638;2023-07-29T10:27:43;57356.44;;;-144.78;40.16
55994;BME280;67425;52.126;20.638;2023-07-29T10:30:10;57352.28;;;-144.78;39.31
55994;BME280;67425;52.126;20.638;2023-07-29T10:32:37;57348.13;;;-144.78;39.69
55994;BME280;67425;52.126;20.638;2023-07-29T10:35:03;57335.66;;;-144.78;38.31
55994;BME280;67425;52.126;20.638;2023-07-29T10:37:29;57335.66;;;-144.78;38.00
55994;BME280;67425;52.126;20.638;2023-07-29T10:39:55;57329.44;;;-144.78;39.56
55994;BME280;67425;52.126;20.638;2023-07-29T10:42:22;57379.28;;;-144.78;38.89
55994;BME280;67425;52.126;20.638;2023-07-29T10:44:47;57337.75;;;-144.78;39.96
55994;BME280;67425;52.126;20.638;2023-07-29T10:47:24;57362.66;;;-144.78;38.88
55994;BME280;67425;52.126;20.638;2023-07-29T10:49:58;57348.13;;;-144.78;37.16
55994;BME280;67425;52.126;20.638;2023-07-29T10:52:40;57308.66;;;-144.78;37.13
55994;BME280;67425;52.126;20.638;2023-07-29T10:57:51;57314.91;;;-144.78;37.24
55994;BME280;67425;52.126;20.638;2023-07-29T11:00:19;57312.81;;;-144.78;37.24
55994;BME280;67425;52.126;20.638;2023-07-29T11:02:56;57281.69;;;-144.78;37.38
55994;BME280;67425;52.126;20.638;2023-07-29T11:05:21;57265.06;;;-144.78;36.58
55994;BME280;67425;52.126;20.638;2023-07-29T11:07:48;57281.69;;;-144.78;36.13
55994;BME280;67425;52.126;20.638;2023-07-29T11:10:14;57364.75;;;-144.78;37.88
55994;BME280;67425;52.126;20.638;2023-07-29T11:12:50;57333.59;;;-144.78;37.42
55994;BME280;67425;52.126;20.638;2023-07-29T11:15:19;57314.91;;;-144.78;38.26
55994;BME280;67425;52.126;20.638;2023-07-29T11:20:12;57364.75;;;-144.78;37.48
55994;BME280;67425;52.126;20.638;2023-07-29T11:22:38;57306.59;;;-144.78;36.63
55994;BME280;67425;52.126;20.638;2023-07-29T11:25:05;57281.69;;;-144.78;37.68
55994;BME280;67425;52.126;20.638;2023-07-29T11:27:31;57271.28;;;-144.78;34.97
55994;BME280;67425;52.126;20.638;2023-07-29T11:30:02;57302.44;;;-144.78;35.67
55994;BME280;67425;52.126;20.638;2023-07-29T11:32:28;57273.38;;;-144.78;35.83
55994;BME280;67425;52.126;20.638;2023-07-29T11:34:53;57271.28;;;-144.78;35.93
55994;BME280;67425;52.126;20.638;2023-07-29T11:37:19;57285.81;;;-144.78;35.81
55994;BME280;67425;52.126;20.638;2023-07-29T11:39:46;57294.13;;;-144.78;36.47
55994;BME280;67425;52.126;20.638;2023-07-29T11:42:12;57292.06;;;-144.78;36.59
55994;BME280;67425;52.126;20.638;2023-07-29T11:44:38;57289.97;;;-144.78;37.86
55994;BME280;67425;52.126;20.638;2023-07-29T11:47:11;57242.22;;;-144.78;35.67
55994;BME280;67425;52.126;20.638;2023-07-29T11:49:38;57260.91;;;-144.78;36.48
55994;BME280;67425;52.126;20.638;2023-07-29T11:52:06;57192.38;;;-144.78;35.40
55994;BME280;67425;52.126;20.638;2023-07-29T11:54:33;57262.97;;;-144.78;35.81
55994;BME280;67425;52.126;20.638;2023-07-29T11:56:59;57296.22;;;-144.78;35.75
55994;BME280;67425;52.126;20.638;2023-07-29T11:59:25;57267.13;;;-144.78;35.13
55994;BME280;67425;52.126;20.638;2023-07-29T12:01:53;57302.44;;;-144.78;36.31
55994;BME280;67425;52.126;20.638;2023-07-29T12:04:18;57296.22;;;-144.78;37.34
55994;BME280;67425;52.126;20.638;2023-07-29T12:06:44;57265.06;;;-144.78;36.75
55994;BME280;67425;52.126;20.638;2023-07-29T12:09:09;57304.50;;;-144.78;36.86
55994;BME280;67425;52.126;20.638;2023-07-29T12:11:35;57289.97;;;-144.78;35.69
55994;BME280;67425;52.126;20.638;2023-07-29T12:14:00;57271.28;;;-144.78;36.69
55994;BME280;67425;52.126;20.638;2023-07-29T12:16:26;57279.59;;;-144.78;36.48
55994;BME280;67425;52.126;20.638;2023-07-29T12:18:51;57285.81;;;-144.78;36.09
55994;BME280;67425;52.126;20.638;2023-07-29T12:21:18;57279.59;;;-144.78;35.48
55994;BME280;67425;52.126;20.638;2023-07-29T12:23:44;57269.22;;;-144.78;36.29
55994;BME280;67425;52.126;20.638;2023-07-29T12:26:09;57285.81;;;-144.78;36.37
55994;BME280;67425;52.126;20.638;2023-07-29T12:28:35;57275.44;;;-144.78;36.53
55994;BME280;67425;52.126;20.638;2023-07-29T12:31:00;57258.84;;;-144.78;36.50
55994;BME280;67425;52.126;20.638;2023-07-29T12:33:36;57229.75;;;-144.78;36.36
55994;BME280;67425;52.126;20.638;2023-07-29T12:36:03;57213.16;;;-144.78;35.97
55994;BME280;67425;52.126;20.638;2023-07-29T12:38:29;57215.22;;;-144.78;34.37
55994;BME280;67425;52.126;20.638;2023-07-29T12:40:55;57242.22;;;-144.78;35.31